• Join FlightAware (Why Join?)
  • Login
  • US Flag 
08:52AM EDT


 

Airport Tracker/Info


-or-


 

Live Flight TrackerFlight Track Log ✈ B-18725 ✈ 01-May-2013 ✈ KSEA - PANC

Flight Track Log - Related Links

Times and Time Zones

All times are in EDT time to prevent confusion due to time zone crossing. See the B-18725 flight status page for this flight to view local times or setup timezone preferences in your user account.

Time Position Orientation Groundspeed Altitude Reporting Facility
EDT Latitude Longitude Course Direction KTS MPH feet Rate Location/Type
06:01PM 47.6190 -122.4590 276° West 284 327 9,400  Level FlightAware
06:01PM 47.6240 -122.5430 275° West 328 377 11,100 2,220 Climbing FlightAware
06:02PM 47.6300 -122.6520 275° West 381 438 12,600 2,640 Climbing FlightAware
06:03PM 47.6360 -122.7620 275° West 398 458 14,900 3,300 Climbing FlightAware
06:04PM 47.6420 -122.8690 275° West 406 467 17,000 3,060 Climbing FlightAware
06:04PM 47.6720 -122.9890 290° West 410 472 19,300 2,940 Climbing FlightAware
06:05PM 47.7110 -123.0870 301° West 416 479 21,200 2,700 Climbing FlightAware
06:06PM 47.7560 -123.1990 301° West 426 490 23,200 2,520 Climbing FlightAware
06:06PM 47.7970 -123.3040 300° West 435 501 24,800 2,280 Climbing FlightAware
06:07PM 47.8420 -123.4190 300° West 448 516 26,500 2,220 Climbing FlightAware
06:08PM 47.8850 -123.5310 300° West 456 525 28,000 2,460 Climbing FlightAware
06:08PM 47.9260 -123.6370 300° West 452 520 29,800 2,820 Climbing FlightAware
06:09PM 47.9720 -123.7580 300° West 432 497 32,000 2,640 Climbing FlightAware
06:10PM 48.0120 -123.8630 300° West 430 495 33,600 2,100 Climbing FlightAware
06:11PM 48.0510 -123.9640 300° West 426 490 34,800 1,680 Climbing FlightAware
06:11PM 48.0950 -124.0790 300° West 420 483 36,000 840 Climbing FlightAware
06:12PM 48.1320 -124.1780 299° West 416 479 36,000  Level FlightAware
06:13PM 48.1750 -124.2920 300° West 413 475 36,000  Level FlightAware
06:13PM 48.2130 -124.3920 300° West 412 474 36,000  Level FlightAware
06:14PM 48.2550 -124.5050 299° West 410 472 36,000  Level FlightAware
06:15PM 48.2940 -124.6050 300° West 411 473 36,000  Level FlightAware
06:15PM 48.3510 -124.6780 320° Northwest 415 478 36,000  Level FlightAware
06:16PM 48.4220 -124.7600 323° Northwest 421 484 36,000  Level FlightAware
06:17PM 48.4840 -124.8290 324° Northwest 421 484 36,000  Level FlightAware
06:18PM 48.5550 -124.9050 325° Northwest 416 479 36,000  Level FlightAware
06:18PM 48.6200 -124.9750 325° Northwest 421 484 36,000  Level FlightAware
06:19PM 48.6820 -125.0430 324° Northwest 422 486 36,000  Level FlightAware
06:20PM 48.7540 -125.1230 324° Northwest 422 486 36,000  Level FlightAware
06:20PM 48.8010 -125.1750 324° Northwest 423 487 36,000  Level FlightAware
06:21PM 48.9040 -125.2900 324° Northwest 424 488 36,000  Level FlightAware
06:22PM 49.0150 -125.4130 324° Northwest 419 482 36,000  Level FlightAware
06:24PM 49.1250 -125.5360 324° Northwest 422 486 36,000  Level FlightAware
06:24PM 49.2000 -125.6210 323° Northwest 429 494 36,000  Level FlightAware
06:25PM 49.2620 -125.6920 323° Northwest 430 495 36,000  Level FlightAware
06:26PM 49.3080 -125.7440 324° Northwest 430 495 36,000  Level FlightAware
06:26PM 49.3750 -125.8200 324° Northwest 429 494 36,000  Level FlightAware
06:27PM 49.4440 -125.8980 324° Northwest 427 491 36,000  Level FlightAware
06:28PM 49.5010 -125.9630 323° Northwest 426 490 36,000  Level FlightAware
06:28PM 49.5620 -126.0350 323° Northwest 426 490 36,000  Level FlightAware
06:29PM 49.6420 -126.1270 323° Northwest 425 489 36,000  Level FlightAware
06:30PM 49.7050 -126.1990 324° Northwest 426 490 36,000  Level FlightAware
06:30PM 49.7740 -126.2800 323° Northwest 426 490 36,000  Level FlightAware
06:31PM 49.8150 -126.3270 324° Northwest 427 491 36,000  Level FlightAware
06:32PM 49.8820 -126.4060 323° Northwest 427 491 36,000  Level FlightAware
06:32PM 49.9480 -126.4830 323° Northwest 427 491 36,000  Level FlightAware
06:33PM 50.0110 -126.5580 323° Northwest 428 493 36,000  Level FlightAware
06:34PM 50.0630 -126.6190 323° Northwest 428 493 36,000  Level FlightAware
06:34PM 50.1350 -126.7040 323° Northwest 428 493 36,000  Level FlightAware
06:35PM 50.1960 -126.7760 323° Northwest 428 493 36,000  Level FlightAware
06:36PM 50.2790 -126.8750 323° Northwest 428 493 36,000  Level FlightAware
06:36PM 50.3410 -126.9490 323° Northwest 429 494 36,000  Level FlightAware
06:37PM 50.4060 -127.0280 322° Northwest 430 495 36,000  Level FlightAware
06:38PM 50.4670 -127.1010 323° Northwest 430 495 36,000  Level FlightAware
06:39PM 50.5270 -127.1750 322° Northwest 430 495 36,000  Level FlightAware
06:39PM 50.5800 -127.2400 322° Northwest 430 495 36,000  Level FlightAware
06:40PM 50.6330 -127.3060 322° Northwest 430 495 36,000  Level FlightAware
06:41PM 50.6870 -127.3720 322° Northwest 430 495 36,000  Level FlightAware
06:41PM 50.7400 -127.4370 322° Northwest 430 495 36,000  Level FlightAware
06:42PM 50.7930 -127.5030 322° Northwest 430 495 36,000  Level FlightAware
06:43PM 50.8470 -127.5690 322° Northwest 430 495 36,000  Level FlightAware
06:43PM 50.9130 -127.6520 322° Northwest 430 495 36,000  Level FlightAware
06:44PM 50.9670 -127.7180 322° Northwest 430 495 36,000  Level FlightAware
06:45PM 51.0200 -127.7840 322° Northwest 430 495 36,000  Level FlightAware
06:45PM 51.0730 -127.8500 322° Northwest 430 495 36,000  Level FlightAware
06:46PM 51.1260 -127.9170 322° Northwest 430 495 36,000  Level FlightAware
06:47PM 51.1930 -128.0000 322° Northwest 430 495 36,000  Level FlightAware
06:48PM 51.2460 -128.0660 322° Northwest 430 495 36,000  Level FlightAware
06:49PM 51.3667 -128.5000 322° Northwest 430 495 36,000  Level Vancouver Center
06:50PM 51.4500 -128.6500 312° West 430 495 36,000  Level Vancouver Center
06:51PM 51.5333 -128.8000 312° West 430 495 36,000  Level Vancouver Center
06:52PM 51.6167 -128.9333 315° West 430 495 36,000  Level Vancouver Center
06:53PM 51.7000 -129.0833 312° West 430 495 36,000  Level Vancouver Center
06:54PM 51.7667 -129.2000 313° West 420 483 36,000  Level Vancouver Center
06:55PM 51.8667 -129.3500 317° Northwest 420 483 36,000  Level Vancouver Center
06:56PM 51.9333 -129.4833 309° West 420 483 36,000  Level Vancouver Center
06:57PM 52.0167 -129.6000 319° Northwest 420 483 36,000  Level Vancouver Center
06:58PM 52.1000 -129.7500 312° West 430 495 36,000  Level Vancouver Center
06:59PM 52.1833 -129.9000 312° West 430 495 36,000  Level Vancouver Center
07:00PM 52.2667 -130.0500 312° West 430 495 36,000  Level Vancouver Center
07:01PM 52.3333 -130.2000 306° West 430 495 36,000  Level Vancouver Center
07:02PM 52.4167 -130.3167 320° Northwest 430 495 36,000  Level Vancouver Center
07:03PM 52.5167 -130.4667 318° Northwest 430 495 36,000  Level Vancouver Center
07:04PM 52.5833 -130.6167 306° West 430 495 36,000  Level Vancouver Center
07:05PM 52.6667 -130.7667 313° West 430 495 36,000  Level Vancouver Center
07:06PM 52.7500 -130.9167 313° West 430 495 36,000  Level Vancouver Center
07:07PM 52.8333 -131.0500 316° Northwest 430 495 36,000  Level Vancouver Center
07:08PM 52.9000 -131.2000 306° West 420 483 36,000  Level Vancouver Center
07:09PM 52.9833 -131.3500 313° West 420 483 36,000  Level Vancouver Center
07:10PM 53.0500 -131.5000 307° West 430 495 36,000  Level Vancouver Center
07:11PM 53.1333 -131.6500 313° West 430 495 36,000  Level Vancouver Center
07:12PM 53.2167 -131.8000 313° West 430 495 36,000  Level Vancouver Center
07:13PM 53.2833 -131.9333 310° West 430 495 36,000  Level Vancouver Center
07:14PM 53.3833 -132.0833 318° Northwest 430 495 36,000  Level Vancouver Center
07:15PM 53.4500 -132.2500 304° West 430 495 36,000  Level Vancouver Center
07:16PM 53.5333 -132.3667 320° Northwest 430 495 36,000  Level Vancouver Center
07:17PM 53.6167 -132.5333 310° West 430 495 36,000  Level Vancouver Center
07:18PM 53.6833 -132.6833 307° West 430 495 36,000  Level Vancouver Center
07:19PM 53.7667 -132.8167 317° Northwest 420 483 36,000  Level Vancouver Center
07:20PM 53.8500 -132.9833 310° West 420 483 36,000  Level Vancouver Center
07:21PM 53.9333 -133.1333 313° West 420 483 36,000  Level Vancouver Center
07:22PM 54.0000 -133.2667 310° West 420 483 36,000  Level Vancouver Center
07:23PM 54.0833 -133.4333 310° West 430 495 36,000  Level Vancouver Center
07:23PM 54.1500 -133.5000 330° Northwest 420 483 36,000  Level Anchorage Center
07:24PM 54.2333 -133.6500 314° West 430 495 36,000  Level Anchorage Center
07:25PM 54.3000 -133.8167 304° West 430 495 36,000  Level Anchorage Center
07:26PM 54.3833 -133.9500 317° Northwest 430 495 36,000  Level Anchorage Center
07:27PM 54.4667 -134.1167 311° West 440 506 36,000  Level Anchorage Center
07:28PM 54.5500 -134.2667 314° West 440 506 36,000  Level Anchorage Center
07:29PM 54.6167 -134.4167 308° West 440 506 36,000  Level Anchorage Center
07:30PM 54.7000 -134.5667 314° West 440 506 36,000  Level Anchorage Center
07:31PM 54.7833 -134.7167 314° West 440 506 36,000  Level Anchorage Center
07:32PM 54.8667 -134.8833 311° West 440 506 36,000  Level Anchorage Center
07:33PM 54.9500 -135.0500 311° West 440 506 36,000  Level Anchorage Center
07:34PM 55.0333 -135.2000 314° West 440 506 36,000  Level Anchorage Center
07:35PM 55.1167 -135.3667 311° West 440 506 36,000  Level Anchorage Center
07:36PM 55.1833 -135.5333 305° West 440 506 36,000  Level Anchorage Center
07:37PM 55.2667 -135.6833 314° West 440 506 36,000  Level Anchorage Center
07:38PM 55.3500 -135.8500 311° West 440 506 36,000  Level Anchorage Center
07:39PM 55.4333 -136.0167 311° West 440 506 36,000  Level Anchorage Center
07:40PM 55.5000 -136.1667 308° West 430 495 36,000  Level Anchorage Center
07:41PM 55.5833 -136.3333 312° West 430 495 36,000  Level Anchorage Center
07:42PM 55.6667 -136.5000 312° West 430 495 36,000  Level Anchorage Center
07:43PM 55.7333 -136.6667 305° West 430 495 36,000  Level Anchorage Center
07:44PM 55.8167 -136.8333 312° West 420 483 36,000  Level Anchorage Center
07:45PM 55.8833 -137.0000 306° West 430 495 36,000  Level Anchorage Center
07:46PM 55.9667 -137.1667 312° West 430 495 36,000  Level Anchorage Center
07:47PM 56.0333 -137.3333 306° West 420 483 36,000  Level Anchorage Center
07:48PM 56.1167 -137.5000 312° West 430 495 36,000  Level Anchorage Center
07:49PM 56.2000 -137.6667 312° West 430 495 36,000  Level Anchorage Center
07:50PM 56.2667 -137.8333 306° West 430 495 36,000  Level Anchorage Center
07:51PM 56.3500 -138.0000 312° West 430 495 36,000  Level Anchorage Center
07:52PM 56.4167 -138.1667 306° West 430 495 36,000  Level Anchorage Center
07:53PM 56.5000 -138.3333 312° West 430 495 36,000  Level Anchorage Center
07:54PM 56.5667 -138.5000 306° West 440 506 36,000  Level Anchorage Center
07:55PM 56.6333 -138.6833 304° West 440 506 36,000  Level Anchorage Center
07:56PM 56.7167 -138.8667 310° West 440 506 36,000  Level Anchorage Center
07:57PM 56.8000 -139.0333 312° West 450 518 36,000  Level Anchorage Center
07:58PM 56.8667 -139.2167 304° West 440 506 36,000  Level Anchorage Center
07:59PM 56.9500 -139.4000 310° West 450 518 36,000  Level Anchorage Center
08:00PM 57.0167 -139.5833 304° West 450 518 36,000  Level Anchorage Center
08:01PM 57.1000 -139.7667 310° West 450 518 36,000  Level Anchorage Center
08:02PM 57.1667 -139.9167 309° West 450 518 36,000  Level Anchorage Center
08:03PM 57.2333 -140.1167 302° West 460 529 36,000  Level Anchorage Center
08:04PM 57.3167 -140.3000 310° West 440 506 36,000  Level Anchorage Center
08:05PM 57.3833 -140.4833 304° West 450 518 36,000  Level Anchorage Center
08:06PM 57.4667 -140.6667 310° West 440 506 36,000  Level Anchorage Center
08:07PM 57.5333 -140.8500 304° West 450 518 36,000  Level Anchorage Center
08:08PM 57.6167 -141.0500 308° West 450 518 36,000  Level Anchorage Center
08:09PM 57.6833 -141.2333 304° West 450 518 36,000  Level Anchorage Center
08:10PM 57.7667 -141.4333 308° West 460 529 36,000  Level Anchorage Center
08:11PM 57.8333 -141.6333 302° West 460 529 36,000  Level Anchorage Center
08:12PM 57.9167 -141.8333 308° West 460 529 36,000  Level Anchorage Center
08:13PM 57.9833 -142.0333 302° West 460 529 36,000  Level Anchorage Center
08:14PM 58.0500 -142.2333 302° West 460 529 36,000  Level Anchorage Center
08:15PM 58.1333 -142.4333 308° West 470 541 36,000  Level Anchorage Center
08:16PM 58.2000 -142.6333 302° West 460 529 36,000  Level Anchorage Center
08:17PM 58.2833 -142.8500 306° West 460 529 36,000  Level Anchorage Center
08:18PM 58.3500 -143.0333 305° West 450 518 36,000  Level Anchorage Center
08:19PM 58.4167 -143.2500 301° West 460 529 36,000  Level Anchorage Center
08:20PM 58.4833 -143.4500 303° West 460 529 36,000  Level Anchorage Center
08:21PM 58.5500 -143.6500 303° West 450 518 36,000  Level Anchorage Center
08:22PM 58.6333 -143.8667 307° West 460 529 36,000  Level Anchorage Center
08:24PM 58.6998 -144.0707 302° West  Level FlightAware Approximate
08:24PM 58.7667 -144.2667 302° West 450 518 36,000  Level Anchorage Center
08:25PM 58.8333 -144.4833 301° West 450 518 36,000  Level Anchorage Center
08:26PM 58.9000 -144.6833 303° West 450 518 36,000  Level Anchorage Center
08:28PM 58.9632 -144.8884 301° West  Level FlightAware Approximate
08:28PM 59.0333 -145.1000 301° West 450 518 36,000  Level Anchorage Center
08:29PM 59.1000 -145.3000 303° West 440 506 36,000  Level Anchorage Center
08:30PM 59.1667 -145.5167 301° West 450 518 36,000  Level Anchorage Center
08:31PM 59.2333 -145.7167 303° West 440 506 36,000  Level Anchorage Center
08:32PM 59.2833 -145.9333 294° West 440 506 36,000  Level Anchorage Center
08:33PM 59.3500 -146.1500 301° West 450 518 36,000  Level Anchorage Center
08:34PM 59.4167 -146.3500 303° West 420 483 36,000 -600 Level Anchorage Center
08:35PM 59.5000 -146.4833 321° Northwest 420 483 34,900 -1,260 Descending Anchorage Center
08:36PM 59.6333 -146.6333 330° Northwest 440 506 33,500 -1,260 Descending Anchorage Center
08:37PM 59.7333 -146.7667 326° Northwest 430 495 32,400 -1,140 Descending Anchorage Center
08:38PM 59.8333 -146.9000 326° Northwest 420 483 31,300 -1,200 Descending Anchorage Center
08:39PM 59.9167 -147.0333 321° Northwest 410 472 30,100 -1,200 Descending Anchorage Center
08:40PM 60.0167 -147.1667 326° Northwest 410 472 29,000 -1,140 Descending Anchorage Center
08:41PM 60.1167 -147.3000 326° Northwest 400 460 27,900 -1,080 Descending Anchorage Center
08:42PM 60.2000 -147.4333 322° Northwest 390 449 26,900 -1,080 Descending Anchorage Center
08:43PM 60.2833 -147.5500 325° Northwest 390 449 25,800 -1,020 Descending Anchorage Center
08:49PM 60.7470 -148.2720 325° Northwest 344 396 20,200 -960 Descending FlightAware
08:50PM 60.7730 -148.4460 287° West 341 392 19,500 -1,080 Descending FlightAware
08:51PM 60.8110 -148.7130 286° West 331 381 17,700 -1,200 Descending FlightAware
08:53PM 60.8430 -148.9270 287° West 319 367 16,300 -1,200 Descending FlightAware
08:54PM 60.8660 -149.0860 287° West 321 369 15,200 -1,200 Descending FlightAware
08:54PM 60.8850 -149.2160 287° West 321 369 14,400 -1,380 Descending FlightAware
08:55PM 60.9040 -149.3130 292° West 322 371 13,400 -1,680 Descending FlightAware
08:56PM 60.9310 -149.4360 294° West 318 366 12,200 -1,680 Descending FlightAware
08:56PM 60.9530 -149.5400 294° West 315 362 11,100 -1,140 Descending FlightAware
08:57PM 60.9770 -149.6580 293° West 297 342 10,600 -720 Descending FlightAware
08:58PM 61.0040 -149.7650 298° West 269 310 10,100 -960 Descending FlightAware
08:58PM 61.0240 -149.8010 319° Northwest 270 311 9,600 -1,320 Descending FlightAware
08:59PM 61.0580 -149.8560 322° Northwest 267 307 8,900 -1,200 Descending FlightAware
08:59PM 61.0870 -149.9030 322° Northwest 256 295 8,300 -1,140 Descending FlightAware
09:00PM 61.1020 -149.9430 308° West 256 295 7,900 -1,080 Descending FlightAware
09:00PM 61.1060 -149.9800 283° West 250 288 7,600 -1,380 Descending FlightAware
09:00PM 61.1050 -150.0650 269° West 244 281 6,900 -1,200 Descending FlightAware
09:01PM 61.1030 -150.1220 266° West 244 281 6,500 -1,200 Descending FlightAware
09:01PM 61.1020 -150.1960 268° West 254 292 5,800 -1,320 Descending FlightAware
09:02PM 61.1010 -150.2580 268° West 252 290 5,300 -1,140 Descending FlightAware
09:02PM 61.1010 -150.3290 270° West 239 275 4,800 -1,200 Descending FlightAware
09:03PM 61.1070 -150.3800 284° West 226 260 4,200 -1,200 Descending FlightAware
09:03PM 61.1190 -150.3970 326° Northwest 211 243 4,000 -720 Descending FlightAware
09:03PM 61.1290 -150.4010 349° North 203 234 3,900 -1,200 Descending FlightAware
09:03PM 61.1440 -150.3870 24° Northeast 194 223 3,400 -1,380 Descending FlightAware
09:04PM 61.1520 -150.3630 55° Northeast 194 223 3,100 -1,380 Descending FlightAware
09:04PM 61.1640 -150.3120 64° Northeast 192 221 2,400 -780 Descending FlightAware
09:05PM 61.1670 -150.2660 82° East 197 227 2,400 -120 Level FlightAware
09:05PM 61.1670 -150.2230 90° East 175 201 2,300 -660 Descending FlightAware
09:06PM 61.1670 -150.1610 90° East 154 177 1,700 -840 Descending FlightAware
09:06PM 61.1680 -150.1040 88° East 155 178 1,200 -840 Descending FlightAware
09:07PM 61.1680 -150.0650 90° East 153 176 800 -960 Descending FlightAware